createdAt,value
2022-09-10T00:09:41.953Z,0.50
2022-09-10T00:23:42.024Z,0.50
2022-09-10T00:37:41.966Z,0.50
2022-09-10T00:51:41.968Z,0.70
2022-09-10T01:05:41.981Z,0.40
2022-09-10T01:19:42.013Z,0.50
2022-09-10T01:33:41.977Z,0.50
2022-09-10T01:47:41.984Z,0.50
2022-09-10T02:01:42.025Z,0.50
2022-09-10T02:15:42.014Z,0.50
2022-09-10T02:29:42.010Z,0.70
2022-09-10T02:43:42.025Z,0.50
2022-09-10T02:57:42.039Z,0.50
2022-09-10T03:11:42.012Z,0.50
2022-09-10T03:25:42.214Z,0.50
2022-09-10T03:39:42.289Z,0.60
2022-09-10T03:53:42.223Z,0.50
2022-09-10T04:07:42.273Z,0.40
2022-09-10T04:21:42.231Z,0.50
2022-09-10T04:35:42.322Z,0.40
2022-09-10T04:50:54.197Z,0.40
2022-09-10T05:05:42.287Z,0.30
2022-09-10T05:20:42.310Z,0.40
2022-09-10T05:35:42.341Z,0.40
2022-09-10T05:50:42.341Z,0.50
2022-09-10T06:05:42.341Z,0.40
2022-09-10T06:20:42.401Z,0.50
2022-09-10T06:35:42.402Z,0.50
2022-09-10T06:50:42.383Z,0.70
2022-09-10T07:05:42.376Z,0.90
2022-09-10T07:20:42.405Z,0.80
2022-09-10T07:35:42.403Z,1.10
2022-09-10T07:50:42.402Z,1.00
2022-09-10T08:05:42.398Z,1.90
2022-09-10T08:20:42.581Z,2.00
2022-09-10T08:35:42.546Z,1.80
2022-09-10T08:50:42.586Z,2.10
2022-09-10T09:05:42.563Z,1.70
2022-09-10T09:20:42.572Z,1.60
2022-09-10T09:35:42.578Z,1.30
2022-09-10T09:50:42.579Z,1.30
2022-09-10T10:05:42.547Z,1.10
2022-09-10T10:20:42.577Z,1.10
2022-09-10T10:35:42.569Z,0.80
2022-09-10T10:50:42.580Z,0.70
2022-09-10T11:05:42.841Z,0.60
2022-09-10T11:20:43.231Z,0.70
2022-09-10T11:35:43.216Z,0.50
2022-09-10T11:50:43.200Z,0.50
2022-09-10T12:05:43.239Z,0.40
2022-09-10T12:20:43.217Z,0.40
2022-09-10T12:35:43.238Z,0.60
2022-09-10T12:50:43.217Z,0.60
2022-09-10T13:05:43.247Z,0.40
2022-09-10T13:20:43.302Z,0.50
2022-09-10T13:35:43.394Z,0.50
2022-09-10T13:51:43.440Z,0.40
2022-09-10T14:06:43.468Z,0.50
2022-09-10T14:21:43.469Z,0.30
2022-09-10T14:37:43.470Z,0.30
2022-09-10T14:53:43.535Z,1.80
2022-09-10T15:08:43.545Z,1.00
2022-09-10T15:25:05.864Z,1.20
2022-09-10T15:39:43.672Z,1.20
2022-09-10T15:54:43.626Z,1.30
2022-09-10T16:09:43.633Z,1.40
2022-09-10T16:24:43.676Z,1.40
2022-09-10T16:39:43.685Z,1.50
2022-09-10T16:54:43.673Z,1.30
2022-09-10T17:09:43.706Z,1.40
2022-09-10T17:24:43.739Z,1.30
2022-09-10T17:40:43.748Z,1.20
2022-09-10T17:55:43.753Z,0.90
2022-09-10T18:10:43.753Z,0.90
2022-09-10T18:25:46.708Z,0.80
2022-09-10T18:39:43.845Z,0.70
2022-09-10T18:53:43.814Z,0.70
2022-09-10T19:08:43.787Z,0.70
2022-09-10T19:22:43.788Z,0.60
2022-09-10T19:36:43.790Z,0.70
2022-09-10T19:50:43.794Z,0.80
2022-09-10T20:04:43.830Z,0.70
2022-09-10T20:18:43.824Z,0.60
2022-09-10T20:32:43.829Z,0.70
2022-09-10T20:46:43.886Z,0.70
2022-09-10T21:00:43.893Z,0.70
2022-09-10T21:14:43.874Z,0.40
2022-09-10T21:28:43.857Z,0.50
2022-09-10T21:42:43.841Z,0.50
2022-09-10T21:56:43.842Z,0.50
2022-09-10T22:10:43.853Z,0.60
2022-09-10T22:24:43.859Z,0.50
2022-09-10T22:38:43.836Z,0.40
2022-09-10T22:52:43.895Z,0.50
2022-09-10T23:06:43.879Z,0.50
2022-09-10T23:20:43.837Z,0.40
2022-09-10T23:34:43.849Z,0.60
2022-09-10T23:48:43.892Z,0.70
